sensor_id;sensor_type;location;lat;lon;timestamp;P1;durP1;ratioP1;P2;durP2;ratioP2
9288;SDS011;4683;50.864;12.086;2022-09-09T00:02:08;2.57;;;2.37;;
9288;SDS011;4683;50.864;12.086;2022-09-09T00:04:45;2.33;;;2.20;;
9288;SDS011;4683;50.864;12.086;2022-09-09T00:07:31;2.67;;;2.30;;
9288;SDS011;4683;50.864;12.086;2022-09-09T00:10:14;3.13;;;2.30;;
9288;SDS011;4683;50.864;12.086;2022-09-09T00:12:53;2.50;;;2.30;;
9288;SDS011;4683;50.864;12.086;2022-09-09T00:15:30;2.37;;;2.10;;
9288;SDS011;4683;50.864;12.086;2022-09-09T00:18:10;3.03;;;2.53;;
9288;SDS011;4683;50.864;12.086;2022-09-09T00:20:52;4.30;;;2.70;;
9288;SDS011;4683;50.864;12.086;2022-09-09T00:23:34;3.37;;;2.20;;
9288;SDS011;4683;50.864;12.086;2022-09-09T00:26:09;1.93;;;1.77;;
9288;SDS011;4683;50.864;12.086;2022-09-09T00:28:52;2.17;;;1.97;;
9288;SDS011;4683;50.864;12.086;2022-09-09T00:31:31;5.40;;;2.20;;
9288;SDS011;4683;50.864;12.086;2022-09-09T00:34:09;3.70;;;2.47;;
9288;SDS011;4683;50.864;12.086;2022-09-09T00:36:42;2.67;;;2.07;;
9288;SDS011;4683;50.864;12.086;2022-09-09T00:39:13;3.57;;;2.03;;
9288;SDS011;4683;50.864;12.086;2022-09-09T00:41:57;2.03;;;1.80;;
9288;SDS011;4683;50.864;12.086;2022-09-09T00:44:52;2.83;;;2.03;;
9288;SDS011;4683;50.864;12.086;2022-09-09T00:47:36;3.13;;;2.30;;
9288;SDS011;4683;50.864;12.086;2022-09-09T00:53:34;2.40;;;2.20;;
9288;SDS011;4683;50.864;12.086;2022-09-09T00:56:12;2.40;;;1.90;;
9288;SDS011;4683;50.864;12.086;2022-09-09T00:58:43;4.50;;;2.50;;
9288;SDS011;4683;50.864;12.086;2022-09-09T01:01:20;2.60;;;2.30;;
9288;SDS011;4683;50.864;12.086;2022-09-09T01:03:54;2.03;;;1.93;;
9288;SDS011;4683;50.864;12.086;2022-09-09T01:06:29;3.97;;;2.70;;
9288;SDS011;4683;50.864;12.086;2022-09-09T01:11:55;2.43;;;2.23;;
9288;SDS011;4683;50.864;12.086;2022-09-09T01:14:32;3.23;;;2.10;;
9288;SDS011;4683;50.864;12.086;2022-09-09T01:17:14;4.47;;;2.13;;
9288;SDS011;4683;50.864;12.086;2022-09-09T01:19:58;3.53;;;2.20;;
9288;SDS011;4683;50.864;12.086;2022-09-09T01:22:40;2.20;;;1.93;;
9288;SDS011;4683;50.864;12.086;2022-09-09T01:28:43;2.73;;;1.90;;
9288;SDS011;4683;50.864;12.086;2022-09-09T01:31:18;1.80;;;1.70;;
9288;SDS011;4683;50.864;12.086;2022-09-09T01:33:50;2.53;;;2.00;;
9288;SDS011;4683;50.864;12.086;2022-09-09T01:36:20;1.90;;;1.80;;
9288;SDS011;4683;50.864;12.086;2022-09-09T01:38:59;3.13;;;1.90;;
9288;SDS011;4683;50.864;12.086;2022-09-09T01:41:31;2.97;;;2.13;;
9288;SDS011;4683;50.864;12.086;2022-09-09T01:44:06;2.00;;;1.80;;
9288;SDS011;4683;50.864;12.086;2022-09-09T01:46:37;4.50;;;1.83;;
9288;SDS011;4683;50.864;12.086;2022-09-09T01:49:07;2.80;;;1.97;;
9288;SDS011;4683;50.864;12.086;2022-09-09T01:51:36;3.77;;;2.03;;
9288;SDS011;4683;50.864;12.086;2022-09-09T01:54:11;2.20;;;2.00;;
9288;SDS011;4683;50.864;12.086;2022-09-09T01:56:46;3.40;;;2.23;;
9288;SDS011;4683;50.864;12.086;2022-09-09T01:59:28;2.80;;;1.70;;
9288;SDS011;4683;50.864;12.086;2022-09-09T02:02:16;2.67;;;1.77;;
9288;SDS011;4683;50.864;12.086;2022-09-09T02:04:52;2.07;;;1.80;;
9288;SDS011;4683;50.864;12.086;2022-09-09T02:07:38;4.57;;;1.93;;
9288;SDS011;4683;50.864;12.086;2022-09-09T02:10:09;2.73;;;1.70;;
9288;SDS011;4683;50.864;12.086;2022-09-09T02:12:44;4.80;;;1.57;;
9288;SDS011;4683;50.864;12.086;2022-09-09T02:15:17;3.00;;;2.20;;
9288;SDS011;4683;50.864;12.086;2022-09-09T02:17:53;3.40;;;1.97;;
9288;SDS011;4683;50.864;12.086;2022-09-09T02:20:25;2.53;;;2.07;;
9288;SDS011;4683;50.864;12.086;2022-09-09T02:22:59;2.40;;;2.20;;
9288;SDS011;4683;50.864;12.086;2022-09-09T02:25:30;2.97;;;2.17;;
9288;SDS011;4683;50.864;12.086;2022-09-09T02:28:03;1.70;;;1.60;;
9288;SDS011;4683;50.864;12.086;2022-09-09T02:30:35;2.00;;;1.80;;
9288;SDS011;4683;50.864;12.086;2022-09-09T02:33:10;3.60;;;2.03;;
9288;SDS011;4683;50.864;12.086;2022-09-09T02:35:41;2.80;;;1.90;;
9288;SDS011;4683;50.864;12.086;2022-09-09T02:38:14;2.87;;;2.10;;
9288;SDS011;4683;50.864;12.086;2022-09-09T02:40:45;2.43;;;1.70;;
9288;SDS011;4683;50.864;12.086;2022-09-09T02:43:15;1.97;;;1.83;;
9288;SDS011;4683;50.864;12.086;2022-09-09T02:45:47;3.37;;;2.23;;
9288;SDS011;4683;50.864;12.086;2022-09-09T02:48:31;1.90;;;1.80;;
9288;SDS011;4683;50.864;12.086;2022-09-09T02:51:10;2.93;;;2.00;;
9288;SDS011;4683;50.864;12.086;2022-09-09T02:53:48;2.07;;;1.83;;
9288;SDS011;4683;50.864;12.086;2022-09-09T02:56:25;3.30;;;2.17;;
9288;SDS011;4683;50.864;12.086;2022-09-09T02:59:02;4.80;;;2.03;;
9288;SDS011;4683;50.864;12.086;2022-09-09T03:01:31;3.10;;;2.20;;
9288;SDS011;4683;50.864;12.086;2022-09-09T03:04:02;4.70;;;2.30;;
9288;SDS011;4683;50.864;12.086;2022-09-09T03:06:31;4.30;;;2.30;;
9288;SDS011;4683;50.864;12.086;2022-09-09T03:09:01;2.07;;;1.90;;
9288;SDS011;4683;50.864;12.086;2022-09-09T03:11:30;3.00;;;2.33;;
9288;SDS011;4683;50.864;12.086;2022-09-09T03:14:01;3.33;;;2.20;;
9288;SDS011;4683;50.864;12.086;2022-09-09T03:16:29;2.90;;;2.13;;
9288;SDS011;4683;50.864;12.086;2022-09-09T03:18:59;4.33;;;2.10;;
9288;SDS011;4683;50.864;12.086;2022-09-09T03:21:35;2.30;;;1.60;;
9288;SDS011;4683;50.864;12.086;2022-09-09T03:24:07;2.77;;;1.90;;
9288;SDS011;4683;50.864;12.086;2022-09-09T03:26:35;2.87;;;2.10;;
9288;SDS011;4683;50.864;12.086;2022-09-09T03:29:26;2.80;;;1.80;;
9288;SDS011;4683;50.864;12.086;2022-09-09T03:31:54;1.67;;;1.47;;
9288;SDS011;4683;50.864;12.086;2022-09-09T03:34:36;2.73;;;2.50;;
9288;SDS011;4683;50.864;12.086;2022-09-09T03:37:12;2.70;;;1.97;;
9288;SDS011;4683;50.864;12.086;2022-09-09T03:39:40;4.23;;;1.70;;
9288;SDS011;4683;50.864;12.086;2022-09-09T03:42:16;3.30;;;1.80;;
9288;SDS011;4683;50.864;12.086;2022-09-09T03:44:47;4.10;;;2.03;;
9288;SDS011;4683;50.864;12.086;2022-09-09T03:47:22;2.27;;;1.90;;
9288;SDS011;4683;50.864;12.086;2022-09-09T03:49:52;4.43;;;2.17;;
9288;SDS011;4683;50.864;12.086;2022-09-09T03:52:21;3.47;;;2.00;;
9288;SDS011;4683;50.864;12.086;2022-09-09T03:54:52;3.00;;;2.07;;
9288;SDS011;4683;50.864;12.086;2022-09-09T03:57:22;4.37;;;2.87;;
9288;SDS011;4683;50.864;12.086;2022-09-09T03:59:58;3.27;;;1.87;;
9288;SDS011;4683;50.864;12.086;2022-09-09T04:02:33;2.83;;;1.80;;
9288;SDS011;4683;50.864;12.086;2022-09-09T04:05:09;3.13;;;1.90;;
9288;SDS011;4683;50.864;12.086;2022-09-09T04:07:38;2.67;;;2.13;;
9288;SDS011;4683;50.864;12.086;2022-09-09T04:10:11;2.83;;;1.70;;
9288;SDS011;4683;50.864;12.086;2022-09-09T04:12:42;3.07;;;1.90;;
9288;SDS011;4683;50.864;12.086;2022-09-09T04:15:13;2.67;;;2.10;;
9288;SDS011;4683;50.864;12.086;2022-09-09T04:17:46;1.53;;;1.40;;
9288;SDS011;4683;50.864;12.086;2022-09-09T04:20:15;2.37;;;1.77;;
9288;SDS011;4683;50.864;12.086;2022-09-09T04:22:49;4.53;;;2.13;;
9288;SDS011;4683;50.864;12.086;2022-09-09T04:25:17;2.83;;;2.27;;
9288;SDS011;4683;50.864;12.086;2022-09-09T04:27:47;3.43;;;2.33;;
9288;SDS011;4683;50.864;12.086;2022-09-09T04:30:24;5.57;;;2.80;;
9288;SDS011;4683;50.864;12.086;2022-09-09T04:33:14;3.77;;;2.10;;
9288;SDS011;4683;50.864;12.086;2022-09-09T04:35:43;3.40;;;3.07;;
9288;SDS011;4683;50.864;12.086;2022-09-09T04:38:33;3.30;;;2.60;;
9288;SDS011;4683;50.864;12.086;2022-09-09T04:41:03;4.30;;;2.20;;
9288;SDS011;4683;50.864;12.086;2022-09-09T04:43:39;2.50;;;2.30;;
9288;SDS011;4683;50.864;12.086;2022-09-09T04:46:15;4.07;;;2.30;;
9288;SDS011;4683;50.864;12.086;2022-09-09T04:48:43;5.50;;;2.30;;
9288;SDS011;4683;50.864;12.086;2022-09-09T04:51:13;3.53;;;2.50;;
9288;SDS011;4683;50.864;12.086;2022-09-09T04:53:47;3.57;;;2.50;;
9288;SDS011;4683;50.864;12.086;2022-09-09T04:56:22;4.03;;;2.30;;
9288;SDS011;4683;50.864;12.086;2022-09-09T04:58:55;3.03;;;2.10;;
9288;SDS011;4683;50.864;12.086;2022-09-09T05:01:37;4.33;;;2.03;;
9288;SDS011;4683;50.864;12.086;2022-09-09T05:04:06;5.57;;;2.90;;
9288;SDS011;4683;50.864;12.086;2022-09-09T05:06:35;5.60;;;3.30;;
9288;SDS011;4683;50.864;12.086;2022-09-09T05:09:04;6.23;;;3.07;;
9288;SDS011;4683;50.864;12.086;2022-09-09T05:11:39;4.07;;;3.50;;
9288;SDS011;4683;50.864;12.086;2022-09-09T05:14:11;4.37;;;2.60;;
9288;SDS011;4683;50.864;12.086;2022-09-09T05:16:45;3.17;;;2.10;;
9288;SDS011;4683;50.864;12.086;2022-09-09T05:19:35;3.23;;;2.13;;
9288;SDS011;4683;50.864;12.086;2022-09-09T05:22:06;3.70;;;3.30;;
9288;SDS011;4683;50.864;12.086;2022-09-09T05:24:59;4.80;;;2.80;;
9288;SDS011;4683;50.864;12.086;2022-09-09T05:27:40;5.53;;;2.50;;
9288;SDS011;4683;50.864;12.086;2022-09-09T05:30:11;3.07;;;2.07;;
9288;SDS011;4683;50.864;12.086;2022-09-09T05:32:45;3.63;;;2.87;;
9288;SDS011;4683;50.864;12.086;2022-09-09T05:35:21;4.97;;;2.67;;
9288;SDS011;4683;50.864;12.086;2022-09-09T05:38:02;3.07;;;2.10;;
9288;SDS011;4683;50.864;12.086;2022-09-09T05:40:34;3.53;;;1.80;;
9288;SDS011;4683;50.864;12.086;2022-09-09T05:43:06;4.60;;;2.43;;
9288;SDS011;4683;50.864;12.086;2022-09-09T05:45:41;4.60;;;2.53;;
9288;SDS011;4683;50.864;12.086;2022-09-09T05:48:12;4.23;;;2.50;;
9288;SDS011;4683;50.864;12.086;2022-09-09T05:50:52;4.03;;;2.20;;
9288;SDS011;4683;50.864;12.086;2022-09-09T05:53:24;3.40;;;2.27;;
9288;SDS011;4683;50.864;12.086;2022-09-09T05:56:54;5.07;;;2.80;;
9288;SDS011;4683;50.864;12.086;2022-09-09T06:00:25;5.93;;;3.03;;
9288;SDS011;4683;50.864;12.086;2022-09-09T06:03:12;3.70;;;2.90;;
9288;SDS011;4683;50.864;12.086;2022-09-09T06:06:00;11.00;;;6.73;;
9288;SDS011;4683;50.864;12.086;2022-09-09T06:08:53;3.80;;;3.13;;
9288;SDS011;4683;50.864;12.086;2022-09-09T06:11:54;7.67;;;3.90;;
9288;SDS011;4683;50.864;12.086;2022-09-09T06:14:43;5.37;;;4.87;;
9288;SDS011;4683;50.864;12.086;2022-09-09T06:17:34;3.83;;;3.50;;
9288;SDS011;4683;50.864;12.086;2022-09-09T06:20:27;4.87;;;2.40;;
9288;SDS011;4683;50.864;12.086;2022-09-09T06:23:08;3.50;;;2.47;;
9288;SDS011;4683;50.864;12.086;2022-09-09T06:25:40;3.47;;;2.00;;
9288;SDS011;4683;50.864;12.086;2022-09-09T06:28:30;4.43;;;2.70;;
9288;SDS011;4683;50.864;12.086;2022-09-09T06:31:05;3.20;;;2.30;;
9288;SDS011;4683;50.864;12.086;2022-09-09T06:33:41;2.63;;;1.87;;
9288;SDS011;4683;50.864;12.086;2022-09-09T06:36:24;4.70;;;3.70;;
9288;SDS011;4683;50.864;12.086;2022-09-09T06:39:17;5.23;;;2.20;;
9288;SDS011;4683;50.864;12.086;2022-09-09T06:42:13;3.30;;;2.03;;
9288;SDS011;4683;50.864;12.086;2022-09-09T06:45:05;2.63;;;2.40;;
9288;SDS011;4683;50.864;12.086;2022-09-09T06:47:46;3.83;;;2.40;;
9288;SDS011;4683;50.864;12.086;2022-09-09T06:50:36;3.80;;;2.53;;
9288;SDS011;4683;50.864;12.086;2022-09-09T06:53:27;5.07;;;3.20;;
9288;SDS011;4683;50.864;12.086;2022-09-09T06:56:15;8.30;;;7.30;;
9288;SDS011;4683;50.864;12.086;2022-09-09T06:59:10;5.67;;;2.30;;
9288;SDS011;4683;50.864;12.086;2022-09-09T07:02:02;2.47;;;1.97;;
9288;SDS011;4683;50.864;12.086;2022-09-09T07:04:32;5.63;;;4.93;;
9288;SDS011;4683;50.864;12.086;2022-09-09T07:07:00;6.03;;;4.10;;
9288;SDS011;4683;50.864;12.086;2022-09-09T07:09:49;5.03;;;3.07;;
9288;SDS011;4683;50.864;12.086;2022-09-09T07:12:41;6.00;;;3.80;;
9288;SDS011;4683;50.864;12.086;2022-09-09T07:15:14;4.97;;;3.50;;
9288;SDS011;4683;50.864;12.086;2022-09-09T07:18:06;6.50;;;3.73;;
9288;SDS011;4683;50.864;12.086;2022-09-09T07:20:37;5.17;;;3.43;;
9288;SDS011;4683;50.864;12.086;2022-09-09T07:23:37;4.30;;;2.83;;
9288;SDS011;4683;50.864;12.086;2022-09-09T07:26:13;4.67;;;3.30;;
9288;SDS011;4683;50.864;12.086;2022-09-09T07:28:48;4.17;;;2.23;;
9288;SDS011;4683;50.864;12.086;2022-09-09T07:31:17;4.30;;;2.40;;
9288;SDS011;4683;50.864;12.086;2022-09-09T07:33:48;3.40;;;2.70;;
9288;SDS011;4683;50.864;12.086;2022-09-09T07:36:18;6.33;;;3.03;;
9288;SDS011;4683;50.864;12.086;2022-09-09T07:38:51;4.20;;;2.90;;
9288;SDS011;4683;50.864;12.086;2022-09-09T07:41:28;3.63;;;2.30;;
9288;SDS011;4683;50.864;12.086;2022-09-09T07:44:13;5.47;;;2.30;;
9288;SDS011;4683;50.864;12.086;2022-09-09T07:46:50;5.03;;;3.87;;
9288;SDS011;4683;50.864;12.086;2022-09-09T07:49:20;2.57;;;2.30;;
9288;SDS011;4683;50.864;12.086;2022-09-09T07:52:09;4.97;;;3.00;;
9288;SDS011;4683;50.864;12.086;2022-09-09T07:54:39;5.10;;;3.10;;
9288;SDS011;4683;50.864;12.086;2022-09-09T07:57:15;4.07;;;3.50;;
9288;SDS011;4683;50.864;12.086;2022-09-09T07:59:55;6.80;;;5.20;;
9288;SDS011;4683;50.864;12.086;2022-09-09T08:02:28;10.27;;;8.40;;
9288;SDS011;4683;50.864;12.086;2022-09-09T08:04:57;7.23;;;5.93;;
9288;SDS011;4683;50.864;12.086;2022-09-09T08:07:26;7.27;;;4.07;;
9288;SDS011;4683;50.864;12.086;2022-09-09T08:09:56;4.60;;;2.60;;
9288;SDS011;4683;50.864;12.086;2022-09-09T08:12:28;2.60;;;1.87;;
9288;SDS011;4683;50.864;12.086;2022-09-09T08:15:12;2.93;;;2.10;;
9288;SDS011;4683;50.864;12.086;2022-09-09T08:17:42;3.90;;;2.03;;
9288;SDS011;4683;50.864;12.086;2022-09-09T08:20:23;3.90;;;1.90;;
9288;SDS011;4683;50.864;12.086;2022-09-09T08:23:03;3.60;;;1.97;;
9288;SDS011;4683;50.864;12.086;2022-09-09T08:25:32;4.23;;;1.90;;
9288;SDS011;4683;50.864;12.086;2022-09-09T08:28:08;4.57;;;1.77;;
9288;SDS011;4683;50.864;12.086;2022-09-09T08:30:51;4.67;;;2.00;;
9288;SDS011;4683;50.864;12.086;2022-09-09T08:33:20;1.73;;;1.63;;
9288;SDS011;4683;50.864;12.086;2022-09-09T08:35:51;3.57;;;1.53;;
9288;SDS011;4683;50.864;12.086;2022-09-09T08:38:31;2.70;;;1.70;;
9288;SDS011;4683;50.864;12.086;2022-09-09T08:41:03;4.43;;;1.57;;
9288;SDS011;4683;50.864;12.086;2022-09-09T08:44:09;2.63;;;1.70;;
9288;SDS011;4683;50.864;12.086;2022-09-09T08:47:09;5.70;;;1.90;;
9288;SDS011;4683;50.864;12.086;2022-09-09T08:50:15;2.17;;;1.47;;
9288;SDS011;4683;50.864;12.086;2022-09-09T08:53:16;3.63;;;1.87;;
9288;SDS011;4683;50.864;12.086;2022-09-09T08:55:55;4.67;;;1.73;;
9288;SDS011;4683;50.864;12.086;2022-09-09T08:58:34;2.23;;;1.93;;
9288;SDS011;4683;50.864;12.086;2022-09-09T09:01:42;3.83;;;1.70;;
9288;SDS011;4683;50.864;12.086;2022-09-09T09:04:31;2.37;;;1.50;;
9288;SDS011;4683;50.864;12.086;2022-09-09T09:07:40;3.20;;;1.63;;
9288;SDS011;4683;50.864;12.086;2022-09-09T09:10:31;4.40;;;2.40;;
9288;SDS011;4683;50.864;12.086;2022-09-09T09:13:13;2.40;;;1.70;;
9288;SDS011;4683;50.864;12.086;2022-09-09T09:15:53;3.50;;;1.80;;
9288;SDS011;4683;50.864;12.086;2022-09-09T09:18:35;4.20;;;2.37;;
9288;SDS011;4683;50.864;12.086;2022-09-09T09:21:06;6.83;;;1.90;;
9288;SDS011;4683;50.864;12.086;2022-09-09T09:23:42;1.60;;;1.40;;
9288;SDS011;4683;50.864;12.086;2022-09-09T09:26:30;2.10;;;1.17;;
9288;SDS011;4683;50.864;12.086;2022-09-09T09:29:08;1.33;;;1.07;;
9288;SDS011;4683;50.864;12.086;2022-09-09T09:31:45;2.00;;;1.00;;
9288;SDS011;4683;50.864;12.086;2022-09-09T09:34:20;2.43;;;1.37;;
9288;SDS011;4683;50.864;12.086;2022-09-09T09:37:01;1.70;;;1.27;;
9288;SDS011;4683;50.864;12.086;2022-09-09T09:39:44;3.87;;;1.80;;
9288;SDS011;4683;50.864;12.086;2022-09-09T09:42:16;3.30;;;2.33;;
9288;SDS011;4683;50.864;12.086;2022-09-09T09:44:49;4.57;;;2.27;;
9288;SDS011;4683;50.864;12.086;2022-09-09T09:47:22;3.17;;;1.80;;
9288;SDS011;4683;50.864;12.086;2022-09-09T09:50:02;2.40;;;1.30;;
9288;SDS011;4683;50.864;12.086;2022-09-09T09:52:53;5.00;;;1.80;;
9288;SDS011;4683;50.864;12.086;2022-09-09T09:55:23;4.17;;;1.50;;
9288;SDS011;4683;50.864;12.086;2022-09-09T09:58:00;2.27;;;1.47;;
9288;SDS011;4683;50.864;12.086;2022-09-09T10:00:31;4.90;;;2.37;;
9288;SDS011;4683;50.864;12.086;2022-09-09T10:03:12;2.50;;;1.70;;
9288;SDS011;4683;50.864;12.086;2022-09-09T10:05:57;2.47;;;1.47;;
9288;SDS011;4683;50.864;12.086;2022-09-09T10:08:27;2.00;;;1.43;;
9288;SDS011;4683;50.864;12.086;2022-09-09T10:11:10;3.87;;;1.50;;
9288;SDS011;4683;50.864;12.086;2022-09-09T10:13:59;1.93;;;1.23;;
9288;SDS011;4683;50.864;12.086;2022-09-09T10:16:41;2.23;;;0.97;;
9288;SDS011;4683;50.864;12.086;2022-09-09T10:19:34;5.17;;;1.43;;
9288;SDS011;4683;50.864;12.086;2022-09-09T10:22:17;4.07;;;1.53;;
9288;SDS011;4683;50.864;12.086;2022-09-09T10:25:01;6.67;;;1.87;;
9288;SDS011;4683;50.864;12.086;2022-09-09T10:28:00;2.97;;;1.80;;
9288;SDS011;4683;50.864;12.086;2022-09-09T10:31:08;2.93;;;1.03;;
9288;SDS011;4683;50.864;12.086;2022-09-09T10:33:55;3.90;;;1.67;;
9288;SDS011;4683;50.864;12.086;2022-09-09T10:36:44;3.07;;;1.40;;
9288;SDS011;4683;50.864;12.086;2022-09-09T10:39:31;3.27;;;2.20;;
9288;SDS011;4683;50.864;12.086;2022-09-09T10:42:09;4.30;;;2.87;;
9288;SDS011;4683;50.864;12.086;2022-09-09T10:44:52;3.47;;;1.67;;
9288;SDS011;4683;50.864;12.086;2022-09-09T10:47:39;4.13;;;2.60;;
9288;SDS011;4683;50.864;12.086;2022-09-09T10:50:39;3.33;;;2.43;;
9288;SDS011;4683;50.864;12.086;2022-09-09T10:53:34;4.70;;;1.60;;
9288;SDS011;4683;50.864;12.086;2022-09-09T10:56:13;3.83;;;1.30;;
9288;SDS011;4683;50.864;12.086;2022-09-09T10:58:48;2.40;;;1.53;;
9288;SDS011;4683;50.864;12.086;2022-09-09T11:01:28;3.30;;;1.57;;
9288;SDS011;4683;50.864;12.086;2022-09-09T11:04:08;6.13;;;3.10;;
9288;SDS011;4683;50.864;12.086;2022-09-09T11:06:46;6.57;;;2.80;;
9288;SDS011;4683;50.864;12.086;2022-09-09T11:09:47;5.30;;;3.43;;
9288;SDS011;4683;50.864;12.086;2022-09-09T11:12:32;4.40;;;1.40;;
9288;SDS011;4683;50.864;12.086;2022-09-09T11:15:06;1.93;;;1.27;;
9288;SDS011;4683;50.864;12.086;2022-09-09T11:17:46;4.90;;;3.50;;
9288;SDS011;4683;50.864;12.086;2022-09-09T11:20:24;1.87;;;1.53;;
9288;SDS011;4683;50.864;12.086;2022-09-09T11:22:55;3.77;;;1.43;;
9288;SDS011;4683;50.864;12.086;2022-09-09T11:25:50;3.10;;;1.50;;
9288;SDS011;4683;50.864;12.086;2022-09-09T11:28:31;0.77;;;0.70;;
9288;SDS011;4683;50.864;12.086;2022-09-09T11:31:21;3.73;;;1.60;;
9288;SDS011;4683;50.864;12.086;2022-09-09T11:34:43;2.70;;;1.77;;
9288;SDS011;4683;50.864;12.086;2022-09-09T11:40:30;2.97;;;1.70;;
9288;SDS011;4683;50.864;12.086;2022-09-09T11:43:03;1.30;;;1.10;;
9288;SDS011;4683;50.864;12.086;2022-09-09T11:45:41;3.83;;;1.63;;
9288;SDS011;4683;50.864;12.086;2022-09-09T11:48:26;2.50;;;1.43;;
9288;SDS011;4683;50.864;12.086;2022-09-09T11:51:07;1.50;;;1.40;;
9288;SDS011;4683;50.864;12.086;2022-09-09T11:53:49;7.07;;;1.63;;
9288;SDS011;4683;50.864;12.086;2022-09-09T11:56:31;3.17;;;1.70;;
9288;SDS011;4683;50.864;12.086;2022-09-09T11:59:19;3.93;;;1.70;;
9288;SDS011;4683;50.864;12.086;2022-09-09T12:01:53;3.73;;;1.60;;
9288;SDS011;4683;50.864;12.086;2022-09-09T12:04:28;3.37;;;1.57;;
9288;SDS011;4683;50.864;12.086;2022-09-09T12:07:23;3.13;;;1.40;;
9288;SDS011;4683;50.864;12.086;2022-09-09T12:10:35;4.10;;;2.33;;
9288;SDS011;4683;50.864;12.086;2022-09-09T12:13:20;3.33;;;1.73;;
9288;SDS011;4683;50.864;12.086;2022-09-09T12:15:55;2.33;;;1.40;;
9288;SDS011;4683;50.864;12.086;2022-09-09T12:18:33;3.83;;;1.30;;
9288;SDS011;4683;50.864;12.086;2022-09-09T12:21:13;1.27;;;1.03;;
9288;SDS011;4683;50.864;12.086;2022-09-09T12:24:18;2.27;;;1.60;;
9288;SDS011;4683;50.864;12.086;2022-09-09T12:26:55;2.63;;;1.17;;
9288;SDS011;4683;50.864;12.086;2022-09-09T12:29:36;2.53;;;1.30;;
9288;SDS011;4683;50.864;12.086;2022-09-09T12:32:15;2.57;;;1.50;;
9288;SDS011;4683;50.864;12.086;2022-09-09T12:34:55;4.23;;;1.90;;
9288;SDS011;4683;50.864;12.086;2022-09-09T12:37:30;5.47;;;1.70;;
9288;SDS011;4683;50.864;12.086;2022-09-09T12:40:21;3.00;;;1.67;;
9288;SDS011;4683;50.864;12.086;2022-09-09T12:42:57;3.17;;;2.40;;
9288;SDS011;4683;50.864;12.086;2022-09-09T12:45:29;3.13;;;2.00;;
9288;SDS011;4683;50.864;12.086;2022-09-09T12:48:05;2.23;;;1.37;;
9288;SDS011;4683;50.864;12.086;2022-09-09T12:50:45;4.13;;;1.93;;
9288;SDS011;4683;50.864;12.086;2022-09-09T12:53:21;2.87;;;1.60;;
9288;SDS011;4683;50.864;12.086;2022-09-09T12:56:01;2.83;;;1.53;;
9288;SDS011;4683;50.864;12.086;2022-09-09T12:58:37;2.47;;;1.63;;
9288;SDS011;4683;50.864;12.086;2022-09-09T13:01:20;4.63;;;1.80;;
9288;SDS011;4683;50.864;12.086;2022-09-09T13:03:56;3.30;;;1.70;;
9288;SDS011;4683;50.864;12.086;2022-09-09T13:06:27;3.50;;;1.40;;
9288;SDS011;4683;50.864;12.086;2022-09-09T13:09:02;1.63;;;1.30;;
9288;SDS011;4683;50.864;12.086;2022-09-09T13:11:34;2.53;;;1.80;;
9288;SDS011;4683;50.864;12.086;2022-09-09T13:14:12;3.40;;;1.27;;
9288;SDS011;4683;50.864;12.086;2022-09-09T13:16:54;2.33;;;1.40;;
9288;SDS011;4683;50.864;12.086;2022-09-09T13:19:27;1.67;;;0.80;;
9288;SDS011;4683;50.864;12.086;2022-09-09T13:25:31;2.17;;;1.20;;
9288;SDS011;4683;50.864;12.086;2022-09-09T13:28:01;2.40;;;1.50;;
9288;SDS011;4683;50.864;12.086;2022-09-09T13:30:36;1.93;;;1.03;;
9288;SDS011;4683;50.864;12.086;2022-09-09T13:33:20;2.70;;;1.20;;
9288;SDS011;4683;50.864;12.086;2022-09-09T13:35:51;2.03;;;0.97;;
9288;SDS011;4683;50.864;12.086;2022-09-09T13:38:24;2.50;;;1.10;;
9288;SDS011;4683;50.864;12.086;2022-09-09T13:41:00;1.73;;;0.90;;
9288;SDS011;4683;50.864;12.086;2022-09-09T13:43:31;2.87;;;1.20;;
9288;SDS011;4683;50.864;12.086;2022-09-09T13:46:05;2.43;;;1.50;;
9288;SDS011;4683;50.864;12.086;2022-09-09T13:48:54;2.47;;;1.00;;
9288;SDS011;4683;50.864;12.086;2022-09-09T13:51:32;1.47;;;1.20;;
9288;SDS011;4683;50.864;12.086;2022-09-09T13:54:08;2.43;;;1.07;;
9288;SDS011;4683;50.864;12.086;2022-09-09T13:56:58;2.83;;;1.37;;
9288;SDS011;4683;50.864;12.086;2022-09-09T13:59:28;2.27;;;1.00;;
9288;SDS011;4683;50.864;12.086;2022-09-09T14:01:59;3.17;;;0.87;;
9288;SDS011;4683;50.864;12.086;2022-09-09T14:04:28;2.67;;;1.20;;
9288;SDS011;4683;50.864;12.086;2022-09-09T14:06:58;1.67;;;1.20;;
9288;SDS011;4683;50.864;12.086;2022-09-09T14:09:30;3.87;;;1.50;;
9288;SDS011;4683;50.864;12.086;2022-09-09T14:11:58;2.07;;;1.23;;
9288;SDS011;4683;50.864;12.086;2022-09-09T14:14:28;2.93;;;1.10;;
9288;SDS011;4683;50.864;12.086;2022-09-09T14:16:58;2.43;;;1.33;;
9288;SDS011;4683;50.864;12.086;2022-09-09T14:19:31;2.00;;;1.20;;
9288;SDS011;4683;50.864;12.086;2022-09-09T14:22:03;2.40;;;1.00;;
9288;SDS011;4683;50.864;12.086;2022-09-09T14:24:43;3.37;;;1.57;;
9288;SDS011;4683;50.864;12.086;2022-09-09T14:27:13;1.53;;;0.87;;
9288;SDS011;4683;50.864;12.086;2022-09-09T14:29:42;2.47;;;1.17;;
9288;SDS011;4683;50.864;12.086;2022-09-09T14:32:10;1.40;;;0.93;;
9288;SDS011;4683;50.864;12.086;2022-09-09T14:34:40;1.87;;;1.10;;
9288;SDS011;4683;50.864;12.086;2022-09-09T14:37:12;1.77;;;0.73;;
9288;SDS011;4683;50.864;12.086;2022-09-09T14:40:21;2.27;;;0.80;;
9288;SDS011;4683;50.864;12.086;2022-09-09T14:42:52;2.23;;;1.33;;
9288;SDS011;4683;50.864;12.086;2022-09-09T14:45:22;2.20;;;0.93;;
9288;SDS011;4683;50.864;12.086;2022-09-09T14:47:52;1.47;;;1.10;;
9288;SDS011;4683;50.864;12.086;2022-09-09T14:50:25;2.47;;;1.10;;
9288;SDS011;4683;50.864;12.086;2022-09-09T14:52:58;2.40;;;1.17;;
9288;SDS011;4683;50.864;12.086;2022-09-09T14:55:34;2.27;;;0.90;;
9288;SDS011;4683;50.864;12.086;2022-09-09T14:58:08;1.90;;;0.70;;
9288;SDS011;4683;50.864;12.086;2022-09-09T15:00:40;1.23;;;0.60;;
9288;SDS011;4683;50.864;12.086;2022-09-09T15:03:10;2.23;;;0.60;;
9288;SDS011;4683;50.864;12.086;2022-09-09T15:05:41;0.93;;;0.80;;
9288;SDS011;4683;50.864;12.086;2022-09-09T15:08:09;1.17;;;0.80;;
9288;SDS011;4683;50.864;12.086;2022-09-09T15:10:40;1.63;;;0.90;;
9288;SDS011;4683;50.864;12.086;2022-09-09T15:13:12;1.63;;;0.60;;
9288;SDS011;4683;50.864;12.086;2022-09-09T15:15:49;0.90;;;0.70;;
9288;SDS011;4683;50.864;12.086;2022-09-09T15:18:23;0.70;;;0.60;;
9288;SDS011;4683;50.864;12.086;2022-09-09T15:20:52;1.33;;;0.80;;
9288;SDS011;4683;50.864;12.086;2022-09-09T15:23:21;0.73;;;0.60;;
9288;SDS011;4683;50.864;12.086;2022-09-09T15:26:00;0.97;;;0.70;;
9288;SDS011;4683;50.864;12.086;2022-09-09T15:28:36;1.53;;;0.90;;
9288;SDS011;4683;50.864;12.086;2022-09-09T15:31:16;3.40;;;1.00;;
9288;SDS011;4683;50.864;12.086;2022-09-09T15:33:56;1.37;;;0.80;;
9288;SDS011;4683;50.864;12.086;2022-09-09T15:36:33;2.13;;;0.90;;
9288;SDS011;4683;50.864;12.086;2022-09-09T15:39:09;1.43;;;0.80;;
9288;SDS011;4683;50.864;12.086;2022-09-09T15:41:45;0.83;;;0.70;;
9288;SDS011;4683;50.864;12.086;2022-09-09T15:44:19;2.43;;;0.93;;
9288;SDS011;4683;50.864;12.086;2022-09-09T15:46:52;2.40;;;1.10;;
9288;SDS011;4683;50.864;12.086;2022-09-09T15:49:21;0.63;;;0.57;;
9288;SDS011;4683;50.864;12.086;2022-09-09T15:51:57;1.10;;;0.73;;
9288;SDS011;4683;50.864;12.086;2022-09-09T15:54:37;1.53;;;0.67;;
9288;SDS011;4683;50.864;12.086;2022-09-09T15:57:14;1.80;;;1.10;;
9288;SDS011;4683;50.864;12.086;2022-09-09T15:59:44;1.97;;;1.10;;
9288;SDS011;4683;50.864;12.086;2022-09-09T16:02:14;1.53;;;0.90;;
9288;SDS011;4683;50.864;12.086;2022-09-09T16:04:46;1.40;;;0.90;;
9288;SDS011;4683;50.864;12.086;2022-09-09T16:07:14;1.50;;;0.80;;
9288;SDS011;4683;50.864;12.086;2022-09-09T16:09:43;1.10;;;0.93;;
9288;SDS011;4683;50.864;12.086;2022-09-09T16:12:14;1.97;;;1.13;;
9288;SDS011;4683;50.864;12.086;2022-09-09T16:14:45;2.33;;;1.33;;
9288;SDS011;4683;50.864;12.086;2022-09-09T16:17:19;2.07;;;1.10;;
9288;SDS011;4683;50.864;12.086;2022-09-09T16:19:49;2.47;;;1.33;;
9288;SDS011;4683;50.864;12.086;2022-09-09T16:22:21;1.70;;;0.90;;
9288;SDS011;4683;50.864;12.086;2022-09-09T16:24:50;2.07;;;1.77;;